Time;durP1;ratioP1;P1;durP2;ratioP2;P2;SDS_P1;SDS_P2;PMS_P1;PMS_P2;Temp;Humidity;BMP_temperature;BMP_pressure;BME280_temperature;BME280_humidity;BME280_pressure;Samples;Min_cycle;Max_cycle;Signal;HPM_P1;HPM_P2
2021/07/19 00:01:55;;;;;;;31.70;20.20;;;512.00;2380.80;;;;;;5112898;28;20495;-63
2021/07/19 00:04:22;;;;;;;23.35;16.40;;;512.10;2380.80;;;;;;5112929;28;20015;-70
2021/07/19 00:06:47;;;;;;;19.42;14.18;;;512.20;2380.80;;;;;;5112638;28;20385;-69
2021/07/19 00:09:14;;;;;;;17.33;12.75;;;512.20;2380.80;;;;;;5108651;28;20080;-61
2021/07/19 00:11:40;;;;;;;17.42;13.75;;;512.20;2380.80;;;;;;5111756;28;20111;-67
2021/07/19 00:14:06;;;;;;;18.95;13.68;;;512.30;2380.80;;;;;;5112658;28;20028;-72
2021/07/19 00:16:32;;;;;;;17.42;12.88;;;512.30;2380.80;;;;;;5111882;28;20019;-70
2021/07/19 00:18:59;;;;;;;17.38;13.05;;;512.30;2380.80;;;;;;5110278;28;20039;-63
2021/07/19 00:21:24;;;;;;;20.63;13.98;;;512.30;2380.80;;;;;;5112172;28;20602;-65
2021/07/19 00:23:50;;;;;;;18.90;12.80;;;512.30;2380.80;;;;;;5130553;27;20035;-68
2021/07/19 00:26:19;;;;;;;19.17;12.98;;;512.30;2380.80;;;;;;5133104;27;20060;-70
2021/07/19 00:28:45;;;;;;;19.45;14.77;;;512.30;2380.80;;;;;;5132147;27;20027;-62
2021/07/19 00:31:11;;;;;;;16.25;12.65;;;512.30;2380.80;;;;;;5135000;27;20525;-61
2021/07/19 00:33:37;;;;;;;17.17;13.00;;;512.30;2380.80;;;;;;5133853;27;20031;-62
2021/07/19 00:36:03;;;;;;;17.67;13.73;;;512.30;2380.80;;;;;;5135077;27;20031;-63
2021/07/19 00:38:29;;;;;;;17.77;13.80;;;512.30;2380.80;;;;;;5133837;27;20019;-61
2021/07/19 00:40:54;;;;;;;16.73;13.15;;;512.30;2380.80;;;;;;5135240;27;20023;-61
2021/07/19 00:43:20;;;;;;;15.77;12.35;;;512.30;2380.80;;;;;;5134449;27;20027;-61
2021/07/19 00:45:46;;;;;;;16.73;13.38;;;512.30;2380.80;;;;;;5135154;27;20026;-69
2021/07/19 00:48:11;;;;;;;17.02;12.30;;;512.30;2380.80;;;;;;5135163;27;20034;-70
2021/07/19 00:50:39;;;;;;;16.63;12.90;;;512.20;2380.80;;;;;;5134763;27;20042;-70
2021/07/19 00:53:07;;;;;;;17.42;13.55;;;512.10;2380.80;;;;;;5135070;27;20539;-69
2021/07/19 00:55:44;;;;;;;18.80;13.48;;;512.10;2380.80;;;;;;5134822;27;20041;-69
2021/07/19 00:58:12;;;;;;;17.70;12.60;;;512.10;2380.80;;;;;;5134528;27;20087;-70
2021/07/19 01:00:42;;;;;;;15.65;12.40;;;512.00;2380.80;;;;;;5134317;27;20027;-70
2021/07/19 01:03:09;;;;;;;17.70;13.07;;;512.00;2380.80;;;;;;5134678;27;20163;-72
2021/07/19 01:05:37;;;;;;;17.05;12.02;;;512.00;2380.80;;;;;;5134746;27;20027;-68
2021/07/19 01:08:04;;;;;;;18.90;13.35;;;512.00;2380.80;;;;;;5130182;27;20024;-70
2021/07/19 01:10:31;;;;;;;18.40;13.30;;;512.00;2380.80;;;;;;5113903;28;20040;-70
2021/07/19 01:12:58;;;;;;;16.55;12.70;;;512.00;2380.80;;;;;;5113650;28;20039;-69
2021/07/19 01:15:26;;;;;;;16.88;12.43;;;512.00;2380.80;;;;;;5113944;28;20038;-71
2021/07/19 01:17:53;;;;;;;18.92;12.20;;;487.30;2380.80;;;;;;5114232;28;20415;-69
2021/07/19 01:20:32;;;;;;;19.20;12.73;;;487.30;2380.80;;;;;;5113727;28;20523;-69
2021/07/19 01:23:09;;;;;;;16.67;12.52;;;487.20;2380.80;;;;;;5113971;28;20380;-69
2021/07/19 01:25:53;;;;;;;18.48;13.25;;;487.20;2380.80;;;;;;5121211;28;20045;-68
2021/07/19 01:28:49;;;;;;;17.60;13.55;;;487.20;2380.80;;;;;;5134439;27;20372;-71
2021/07/19 01:31:24;;;;;;;18.70;13.02;;;487.30;2380.80;;;;;;5052200;28;20490;-70
2021/07/19 01:33:59;;;;;;;15.15;11.63;;;487.30;2380.80;;;;;;5055385;28;20064;-66
2021/07/19 01:36:31;;;;;;;15.10;12.18;;;487.20;2380.80;;;;;;5045516;28;20057;-70
2021/07/19 01:38:59;;;;;;;15.82;11.85;;;487.20;2380.80;;;;;;5050684;28;20033;-69
2021/07/19 01:41:27;;;;;;;17.83;13.60;;;487.30;2380.80;;;;;;5035151;28;20069;-70
2021/07/19 01:43:55;;;;;;;15.82;12.07;;;487.30;2380.80;;;;;;5034877;28;20025;-70
2021/07/19 01:46:22;;;;;;;17.65;12.98;;;487.30;2380.80;;;;;;5034820;28;20037;-69
2021/07/19 01:48:48;;;;;;;15.50;12.02;;;512.00;2380.80;;;;;;5034496;28;20569;-70
2021/07/19 01:51:15;;;;;;;16.30;10.88;;;512.00;2380.80;;;;;;5034756;28;20055;-67
2021/07/19 01:53:42;;;;;;;15.80;11.90;;;512.00;2380.80;;;;;;5034792;28;20383;-69
2021/07/19 01:56:09;;;;;;;15.38;11.70;;;512.00;2380.80;;;;;;5034871;28;20116;-67
2021/07/19 01:58:36;;;;;;;14.77;10.93;;;512.00;2380.80;;;;;;5034426;28;20074;-68
2021/07/19 02:01:03;;;;;;;12.48;9.90;;;487.30;2380.80;;;;;;5034806;28;20360;-67
2021/07/19 02:03:29;;;;;;;11.90;9.25;;;487.30;2380.80;;;;;;5034385;28;20033;-69
2021/07/19 02:05:57;;;;;;;13.77;10.40;;;487.30;2380.80;;;;;;5034766;28;20162;-69
2021/07/19 02:08:24;;;;;;;15.15;10.30;;;487.30;2380.80;;;;;;5103193;28;20489;-69
2021/07/19 02:10:54;;;;;;;14.77;9.90;;;487.20;2380.80;;;;;;5117235;28;20370;-67
2021/07/19 02:13:21;;;;;;;11.82;9.07;;;487.20;2380.80;;;;;;5117272;28;20023;-63
2021/07/19 02:15:49;;;;;;;8.88;7.80;;;487.20;2380.80;;;;;;5116859;28;20020;-69
2021/07/19 02:18:17;;;;;;;10.75;8.02;;;512.00;2380.80;;;;;;5117655;28;20043;-72
2021/07/19 02:20:44;;;;;;;11.52;7.90;;;487.20;2380.80;;;;;;5117123;28;20040;-71
2021/07/19 02:23:10;;;;;;;11.00;8.00;;;487.20;2380.80;;;;;;5116890;28;20107;-68
2021/07/19 02:25:39;;;;;;;11.48;8.52;;;487.20;2380.80;;;;;;5117112;28;20028;-69
2021/07/19 02:28:07;;;;;;;11.52;8.85;;;487.10;2380.80;;;;;;5117120;28;20032;-69
2021/07/19 02:30:34;;;;;;;11.05;8.30;;;487.10;2380.80;;;;;;5116760;28;20062;-68
2021/07/19 02:33:00;;;;;;;13.15;9.05;;;487.10;2380.80;;;;;;5117018;28;20419;-69
2021/07/19 02:35:27;;;;;;;11.25;8.35;;;487.10;2380.80;;;;;;5116793;28;20484;-69
2021/07/19 02:37:56;;;;;;;11.25;8.60;;;487.10;2380.80;;;;;;5116919;28;20346;-68
2021/07/19 02:40:23;;;;;;;12.32;8.68;;;487.10;2380.80;;;;;;5115113;28;20476;-68
2021/07/19 02:42:56;;;;;;;11.60;7.65;;;487.10;2380.80;;;;;;5114835;28;20020;-70
2021/07/19 02:45:24;;;;;;;11.18;8.18;;;487.10;2380.80;;;;;;5115231;28;20030;-71
2021/07/19 02:47:51;;;;;;;9.40;7.65;;;487.10;2380.80;;;;;;5116571;28;20072;-70
2021/07/19 02:50:21;;;;;;;9.82;8.02;;;487.10;2380.80;;;;;;5116641;28;20035;-70
2021/07/19 02:52:49;;;;;;;11.07;8.00;;;487.10;2380.80;;;;;;5116638;28;20016;-71
2021/07/19 02:55:15;;;;;;;10.68;7.68;;;487.10;2380.80;;;;;;5116673;28;20156;-70
2021/07/19 02:57:41;;;;;;;9.70;7.85;;;487.10;2380.80;;;;;;5116391;28;20451;-72
2021/07/19 03:00:10;;;;;;;11.60;8.23;;;487.10;2380.80;;;;;;5114922;28;20114;-69
2021/07/19 03:02:59;;;;;;;12.88;8.73;;;487.10;2380.80;;;;;;5114338;28;20030;-69
2021/07/19 03:05:32;;;;;;;9.45;7.88;;;487.10;2380.80;;;;;;5115564;28;20487;-69
2021/07/19 03:08:00;;;;;;;11.10;7.70;;;487.10;2380.80;;;;;;5116381;28;20058;-68
2021/07/19 03:10:28;;;;;;;9.93;7.57;;;487.10;2380.80;;;;;;5116068;28;20038;-69
2021/07/19 03:13:09;;;;;;;8.23;7.40;;;487.20;2380.80;;;;;;5116156;28;20377;-66
2021/07/19 03:15:38;;;;;;;9.98;8.38;;;487.20;2380.80;;;;;;5116002;28;20023;-62
2021/07/19 03:18:05;;;;;;;9.70;8.10;;;487.10;2380.80;;;;;;5116095;28;20069;-62
2021/07/19 03:20:36;;;;;;;10.88;8.32;;;487.10;2380.80;;;;;;5115779;28;20054;-69
2021/07/19 03:23:04;;;;;;;9.43;7.93;;;487.20;2380.80;;;;;;5115749;28;20850;-62
2021/07/19 03:25:32;;;;;;;10.73;8.00;;;487.20;2380.80;;;;;;5116068;28;20028;-62
2021/07/19 03:27:59;;;;;;;11.13;8.90;;;487.20;2380.80;;;;;;5115909;28;20051;-62
2021/07/19 03:30:25;;;;;;;10.70;8.52;;;487.20;2380.80;;;;;;5115773;28;20082;-61
2021/07/19 03:32:51;;;;;;;10.00;8.32;;;487.20;2380.80;;;;;;5115922;28;20461;-63
2021/07/19 03:35:21;;;;;;;12.07;9.35;;;487.20;2380.80;;;;;;5115560;27;20032;-63
2021/07/19 03:37:48;;;;;;;12.25;9.85;;;487.20;2380.80;;;;;;5116119;28;20023;-62
2021/07/19 03:40:16;;;;;;;12.65;9.88;;;487.30;2380.80;;;;;;5115379;28;20027;-63
2021/07/19 03:42:43;;;;;;;10.77;9.07;;;512.00;2380.80;;;;;;5113924;28;20023;-63
2021/07/19 03:45:11;;;;;;;11.25;9.35;;;512.00;2380.80;;;;;;5115162;28;20081;-62
2021/07/19 03:47:37;;;;;;;10.10;8.63;;;512.00;2380.80;;;;;;5114058;28;20030;-61
2021/07/19 03:50:05;;;;;;;9.90;8.90;;;512.00;2380.80;;;;;;5115355;28;20101;-64
2021/07/19 03:52:31;;;;;;;11.25;8.80;;;512.00;2380.80;;;;;;5115326;28;20054;-62
2021/07/19 03:54:58;;;;;;;11.82;9.07;;;512.00;2380.80;;;;;;5114186;28;20023;-62
2021/07/19 03:57:24;;;;;;;10.68;8.93;;;512.00;2380.80;;;;;;5115049;28;20034;-62
2021/07/19 03:59:50;;;;;;;10.05;8.43;;;512.10;2380.80;;;;;;5115086;28;20399;-62
2021/07/19 04:02:18;;;;;;;10.68;8.48;;;512.20;2380.80;;;;;;5115211;28;20031;-62
2021/07/19 04:04:51;;;;;;;11.13;8.13;;;512.20;2380.80;;;;;;5115260;28;20362;-61
2021/07/19 04:07:17;;;;;;;13.07;9.90;;;512.30;2380.80;;;;;;5115017;28;20484;-62
2021/07/19 04:09:43;;;;;;;11.73;9.32;;;512.40;2380.80;;;;;;5114711;28;20060;-64
2021/07/19 04:12:13;;;;;;;12.15;9.13;;;512.40;2380.80;;;;;;5115082;28;20129;-62
2021/07/19 04:14:40;;;;;;;11.48;9.18;;;512.50;2380.80;;;;;;5114740;27;20012;-65
2021/07/19 04:17:08;;;;;;;11.82;8.68;;;512.50;2380.80;;;;;;5114811;28;20431;-62
2021/07/19 04:19:34;;;;;;;11.27;8.80;;;512.70;2380.80;;;;;;5113348;28;20124;-62
2021/07/19 04:22:00;;;;;;;12.40;9.02;;;512.70;2380.80;;;;;;5114775;28;20027;-61
2021/07/19 04:24:27;;;;;;;11.30;9.13;;;512.80;2380.80;;;;;;5114790;28;20480;-61
2021/07/19 04:26:52;;;;;;;11.13;9.30;;;512.90;2380.80;;;;;;5114739;27;20020;-61
2021/07/19 04:29:24;;;;;;;10.43;8.73;;;512.90;2380.80;;;;;;5114320;28;20054;-61
2021/07/19 04:31:58;;;;;;;8.82;6.72;;;537.60;2406.40;;;;;;5114492;27;20027;-61
2021/07/19 04:34:30;;;;;;;9.10;7.75;;;512.90;2380.80;;;;;;5114348;28;20020;-61
2021/07/19 04:37:01;;;;;;;10.35;8.60;;;512.90;2380.80;;;;;;5114497;28;20028;-61
2021/07/19 04:39:27;;;;;;;11.73;8.38;;;537.60;2406.40;;;;;;5114482;28;20065;-62
2021/07/19 04:41:53;;;;;;;11.25;9.32;;;537.60;2406.40;;;;;;5114707;28;20019;-62
2021/07/19 04:44:19;;;;;;;11.52;9.85;;;537.70;2406.40;;;;;;5114026;28;20028;-62
2021/07/19 04:46:45;;;;;;;11.63;9.45;;;537.60;2406.40;;;;;;5114171;28;20024;-62
2021/07/19 04:49:11;;;;;;;10.65;8.95;;;537.70;2406.40;;;;;;5114266;28;20031;-62
2021/07/19 04:51:37;;;;;;;12.45;8.75;;;537.60;2406.40;;;;;;5112720;28;20036;-62
2021/07/19 04:54:05;;;;;;;12.07;9.00;;;537.60;2406.40;;;;;;5113967;28;20089;-62
2021/07/19 04:56:32;;;;;;;9.60;8.38;;;537.70;2406.40;;;;;;5113572;28;20027;-63
2021/07/19 04:59:02;;;;;;;9.80;8.57;;;537.70;2406.40;;;;;;5114137;28;20032;-62
2021/07/19 05:01:29;;;;;;;11.30;8.70;;;537.60;2406.40;;;;;;5114063;28;20022;-62
2021/07/19 05:03:56;;;;;;;9.15;7.65;;;537.60;2406.40;;;;;;5113988;28;20023;-62
2021/07/19 05:06:27;;;;;;;10.52;8.30;;;537.70;2406.40;;;;;;5114135;28;20094;-62
2021/07/19 05:08:54;;;;;;;9.70;8.30;;;537.70;2406.40;;;;;;5114129;28;20463;-61
2021/07/19 05:11:23;;;;;;;9.07;8.10;;;537.70;2406.40;;;;;;5112491;28;20050;-62
2021/07/19 05:13:49;;;;;;;10.32;8.50;;;537.80;2406.40;;;;;;5113837;28;20054;-62
2021/07/19 05:16:15;;;;;;;9.65;8.65;;;537.80;2406.40;;;;;;5113854;28;20031;-62
2021/07/19 05:18:41;;;;;;;11.15;8.43;;;537.90;2406.40;;;;;;5113951;28;20070;-62
2021/07/19 05:21:08;;;;;;;11.07;8.23;;;538.00;2406.40;;;;;;5112270;28;20441;-63
2021/07/19 05:23:34;;;;;;;9.23;7.18;;;537.90;2406.40;;;;;;5114031;28;20024;-63
2021/07/19 05:25:59;;;;;;;9.05;8.10;;;537.90;2406.40;;;;;;5113926;28;20051;-62
2021/07/19 05:28:25;;;;;;;9.35;7.60;;;537.90;2406.40;;;;;;5114142;28;20024;-63
2021/07/19 05:30:53;;;;;;;8.45;7.03;;;537.90;2406.40;;;;;;5113549;28;20036;-62
2021/07/19 05:33:21;;;;;;;8.52;7.63;;;537.90;2406.40;;;;;;5113705;28;20028;-62
2021/07/19 05:35:48;;;;;;;13.30;8.23;;;537.90;2406.40;;;;;;5113685;28;20028;-62
2021/07/19 05:38:14;;;;;;;9.85;6.10;;;537.90;2406.40;;;;;;5113702;28;20028;-62
2021/07/19 05:40:40;;;;;;;8.50;7.60;;;538.00;2406.40;;;;;;5113677;28;20098;-62
2021/07/19 05:43:06;;;;;;;9.02;6.80;;;538.00;2406.40;;;;;;5113575;28;20461;-63
2021/07/19 05:45:32;;;;;;;9.55;7.68;;;538.00;2406.40;;;;;;5113367;28;20115;-62
2021/07/19 05:47:58;;;;;;;8.45;7.43;;;538.10;2406.40;;;;;;5113456;28;20039;-63
2021/07/19 05:50:25;;;;;;;9.20;7.07;;;538.10;2406.40;;;;;;5113500;28;20028;-62
2021/07/19 05:52:51;;;;;;;7.97;7.15;;;537.90;2406.40;;;;;;5113461;28;20030;-62
2021/07/19 05:55:17;;;;;;;9.13;7.78;;;538.00;2406.40;;;;;;5121558;28;20023;-63
2021/07/19 05:57:44;;;;;;;9.45;6.68;;;538.10;2406.40;;;;;;5122994;28;20027;-62
2021/07/19 06:00:15;;;;;;;7.03;5.70;;;538.20;2406.40;;;;;;5122076;27;20055;-64
2021/07/19 06:02:42;;;;;;;8.40;7.30;;;538.30;2406.40;;;;;;5123017;27;20019;-62
2021/07/19 06:05:09;;;;;;;8.23;6.40;;;538.30;2406.40;;;;;;5124452;28;20032;-63
2021/07/19 06:07:35;;;;;;;10.80;7.63;;;538.40;2406.40;;;;;;5122109;28;20026;-62
2021/07/19 06:10:05;;;;;;;10.20;7.00;;;538.40;2406.40;;;;;;5123251;27;20411;-62
2021/07/19 06:12:31;;;;;;;7.80;6.60;;;538.40;2406.40;;;;;;5124246;28;20024;-62
2021/07/19 06:14:56;;;;;;;10.45;7.10;;;538.40;2406.40;;;;;;5122374;28;20030;-62
2021/07/19 06:17:22;;;;;;;10.27;7.40;;;538.40;2406.40;;;;;;5124358;27;20022;-63
2021/07/19 06:19:48;;;;;;;8.95;6.70;;;538.50;2406.40;;;;;;5126930;27;20099;-63
2021/07/19 06:22:16;;;;;;;8.68;6.90;;;563.20;2432.00;;;;;;5125884;27;20350;-63
2021/07/19 06:24:42;;;;;;;10.00;7.07;;;563.20;2432.00;;;;;;5131532;27;20024;-62
2021/07/19 06:27:08;;;;;;;7.50;6.55;;;563.20;2432.00;;;;;;5137401;27;20051;-63
2021/07/19 06:29:34;;;;;;;8.20;6.93;;;563.30;2432.00;;;;;;5131073;27;20055;-62
2021/07/19 06:32:01;;;;;;;8.70;6.38;;;563.30;2432.00;;;;;;5127258;27;20490;-63
2021/07/19 06:34:27;;;;;;;7.72;5.72;;;563.30;2432.00;;;;;;5129195;27;20483;-63
2021/07/19 06:36:53;;;;;;;8.48;6.40;;;563.30;2432.00;;;;;;5126310;27;20023;-62
2021/07/19 06:39:19;;;;;;;8.43;6.72;;;563.30;2432.00;;;;;;5127568;27;20015;-63
2021/07/19 06:41:45;;;;;;;6.88;5.70;;;563.40;2432.00;;;;;;5126327;27;20165;-64
2021/07/19 06:44:11;;;;;;;8.38;5.90;;;563.50;2432.00;;;;;;5123612;27;20098;-64
2021/07/19 06:46:37;;;;;;;8.95;6.00;;;563.40;2432.00;;;;;;5125292;27;20109;-65
2021/07/19 06:49:03;;;;;;;8.60;7.05;;;563.40;2432.00;;;;;;5126540;27;20528;-64
2021/07/19 06:51:29;;;;;;;8.52;6.78;;;563.50;2432.00;;;;;;5122757;27;20089;-64
2021/07/19 06:53:55;;;;;;;9.05;7.07;;;563.60;2432.00;;;;;;5125551;27;20380;-64
2021/07/19 06:56:20;;;;;;;8.30;5.70;;;563.70;2432.00;;;;;;5125709;27;20020;-64
2021/07/19 06:58:46;;;;;;;8.13;6.05;;;563.90;2432.00;;;;;;5122789;27;20041;-64
2021/07/19 07:01:12;;;;;;;8.57;6.68;;;563.90;2432.00;;;;;;5124281;27;20023;-64
2021/07/19 07:03:38;;;;;;;7.65;5.57;;;564.10;2432.00;;;;;;5125645;27;20351;-64
2021/07/19 07:06:03;;;;;;;8.00;6.38;;;588.80;2432.00;;;;;;5122915;27;20120;-64
2021/07/19 07:08:29;;;;;;;7.05;6.35;;;588.90;2432.00;;;;;;5123735;27;20027;-63
2021/07/19 07:10:55;;;;;;;7.38;6.10;;;589.00;2432.00;;;;;;5125192;27;20042;-64
2021/07/19 07:13:21;;;;;;;10.15;6.82;;;589.10;2432.00;;;;;;5125688;27;20016;-63
2021/07/19 07:15:48;;;;;;;8.48;6.85;;;589.10;2432.00;;;;;;5123488;27;20016;-62
2021/07/19 07:18:14;;;;;;;11.82;7.63;;;589.20;2432.00;;;;;;5125297;27;20033;-64
2021/07/19 07:20:40;;;;;;;10.50;8.00;;;589.20;2432.00;;;;;;5125216;27;20044;-63
2021/07/19 07:23:06;;;;;;;13.13;9.25;;;589.30;2432.00;;;;;;5123538;27;20023;-63
2021/07/19 07:25:32;;;;;;;11.07;8.10;;;589.30;2432.00;;;;;;5125098;27;20018;-65
2021/07/19 07:27:58;;;;;;;10.00;7.40;;;589.30;2432.00;;;;;;5125437;27;20469;-63
2021/07/19 07:30:25;;;;;;;10.45;5.88;;;589.30;2432.00;;;;;;5123378;27;20023;-63
2021/07/19 07:32:51;;;;;;;10.80;6.80;;;589.10;2432.00;;;;;;5124018;27;20369;-64
2021/07/19 07:35:16;;;;;;;8.68;6.97;;;589.00;2432.00;;;;;;5124518;27;20027;-64
2021/07/19 07:37:43;;;;;;;9.63;7.50;;;589.00;2432.00;;;;;;5125604;27;20027;-64
2021/07/19 07:40:15;;;;;;;9.07;6.32;;;588.80;2432.00;;;;;;5123421;27;20028;-64
2021/07/19 07:42:41;;;;;;;8.15;6.60;;;564.00;2432.00;;;;;;5124068;27;20096;-63
2021/07/19 07:45:08;;;;;;;26.40;15.48;;;564.00;2432.00;;;;;;5124479;27;20070;-63
2021/07/19 07:47:34;;;;;;;13.07;9.30;;;564.00;2432.00;;;;;;5124589;27;20468;-64
2021/07/19 07:50:00;;;;;;;11.80;8.20;;;564.00;2432.00;;;;;;5124864;27;20076;-64
2021/07/19 07:52:26;;;;;;;14.85;9.15;;;563.90;2432.00;;;;;;5122966;27;20436;-63
2021/07/19 07:54:52;;;;;;;12.38;7.30;;;563.90;2432.00;;;;;;5123473;27;20106;-64
2021/07/19 07:57:18;;;;;;;9.90;7.30;;;564.00;2432.00;;;;;;5123977;27;20103;-64
2021/07/19 07:59:43;;;;;;;22.40;14.10;;;563.90;2432.00;;;;;;5124495;27;20012;-64
2021/07/19 08:02:10;;;;;;;9.73;7.03;;;564.00;2432.00;;;;;;5122756;27;20031;-64
2021/07/19 08:04:37;;;;;;;8.60;6.72;;;564.00;2432.00;;;;;;5124035;27;20015;-65
2021/07/19 08:07:04;;;;;;;36.67;18.63;;;588.80;2432.00;;;;;;5127585;27;20479;-65
2021/07/19 08:09:30;;;;;;;9.85;6.80;;;588.90;2432.00;;;;;;5135703;27;20080;-64
2021/07/19 08:11:56;;;;;;;7.68;6.47;;;589.00;2432.00;;;;;;5135860;27;20031;-66
2021/07/19 08:14:24;;;;;;;8.05;7.22;;;589.10;2432.00;;;;;;5135561;27;20511;-66
2021/07/19 08:16:49;;;;;;;8.82;6.78;;;589.20;2432.00;;;;;;5135273;27;20091;-63
2021/07/19 08:19:15;;;;;;;9.35;7.55;;;589.20;2432.00;;;;;;5135490;27;20023;-65
2021/07/19 08:21:42;;;;;;;8.88;7.63;;;589.30;2432.00;;;;;;5134072;27;20475;-66
2021/07/19 08:24:08;;;;;;;12.52;8.20;;;589.30;2432.00;;;;;;5134906;27;20042;-64
2021/07/19 08:26:34;;;;;;;9.77;7.82;;;589.30;2432.00;;;;;;5122694;27;20026;-64
2021/07/19 08:29:01;;;;;;;9.23;7.68;;;589.40;2432.00;;;;;;5114741;28;20444;-65
2021/07/19 08:31:27;;;;;;;10.20;7.68;;;589.30;2432.00;;;;;;5114054;28;20080;-65
2021/07/19 08:33:54;;;;;;;13.05;8.77;;;589.50;2432.00;;;;;;5114906;28;20084;-63
2021/07/19 08:36:20;;;;;;;9.18;7.75;;;589.50;2432.00;;;;;;5114467;28;20024;-65
2021/07/19 08:38:47;;;;;;;10.50;8.00;;;589.60;2432.00;;;;;;5114539;28;20023;-64
2021/07/19 08:41:13;;;;;;;11.68;8.50;;;589.60;2432.00;;;;;;5116262;27;20024;-63
2021/07/19 08:43:40;;;;;;;10.10;8.60;;;589.70;2432.00;;;;;;5114202;28;20056;-66
2021/07/19 08:46:08;;;;;;;9.90;7.82;;;614.40;2432.00;;;;;;5119339;27;20026;-64
2021/07/19 08:48:34;;;;;;;10.88;8.50;;;614.40;2432.00;;;;;;5124638;27;20390;-65
2021/07/19 08:51:00;;;;;;;9.77;8.30;;;614.50;2432.00;;;;;;5121688;27;20061;-64
2021/07/19 08:53:32;;;;;;;11.70;8.30;;;614.60;2432.00;;;;;;5131293;27;20034;-64
2021/07/19 08:55:58;;;;;;;10.02;8.68;;;614.60;2432.00;;;;;;5134781;27;20128;-63
2021/07/19 08:58:25;;;;;;;10.40;8.80;;;614.70;2432.00;;;;;;5132636;27;20076;-64
2021/07/19 09:00:53;;;;;;;11.00;8.90;;;614.70;2432.00;;;;;;5134437;27;20023;-64
2021/07/19 09:03:19;;;;;;;10.43;8.43;;;614.70;2432.00;;;;;;5134626;27;20031;-64
2021/07/19 09:05:47;;;;;;;10.88;8.50;;;614.70;2432.00;;;;;;5134457;27;20407;-63
2021/07/19 09:08:12;;;;;;;13.05;9.50;;;614.70;2432.00;;;;;;5123402;27;20043;-64
2021/07/19 09:10:38;;;;;;;11.40;9.18;;;614.70;2432.00;;;;;;5124599;27;20066;-63
2021/07/19 09:13:07;;;;;;;12.27;9.43;;;614.70;2432.00;;;;;;5122511;27;20388;-64
2021/07/19 09:15:37;;;;;;;11.13;9.23;;;614.70;2432.00;;;;;;5121956;28;20435;-65
2021/07/19 09:18:05;;;;;;;13.57;10.15;;;614.70;2432.00;;;;;;5124508;28;20068;-64
2021/07/19 09:20:40;;;;;;;12.98;9.48;;;614.70;2432.00;;;;;;5121823;28;20489;-65
2021/07/19 09:23:08;;;;;;;12.25;9.90;;;614.70;2432.00;;;;;;5113978;28;20473;-65
2021/07/19 09:25:34;;;;;;;10.43;9.20;;;614.80;2432.00;;;;;;5121618;28;20487;-65
2021/07/19 09:28:08;;;;;;;12.13;9.07;;;614.80;2432.00;;;;;;5122727;28;20108;-64
2021/07/19 09:30:39;;;;;;;9.55;8.50;;;614.80;2432.00;;;;;;5121929;28;20031;-64
2021/07/19 09:33:10;;;;;;;11.25;9.50;;;614.90;2432.00;;;;;;5121797;27;20032;-65
2021/07/19 09:35:42;;;;;;;12.65;9.50;;;614.90;2432.00;;;;;;5115162;27;20024;-65
2021/07/19 09:38:12;;;;;;;15.15;9.80;;;614.80;2432.00;;;;;;5113781;28;20020;-64
2021/07/19 09:40:40;;;;;;;11.27;9.57;;;614.70;2432.00;;;;;;5112097;28;20043;-64
2021/07/19 09:43:13;;;;;;;11.25;9.70;;;614.70;2432.00;;;;;;5113871;28;20016;-65
2021/07/19 09:45:38;;;;;;;12.32;9.80;;;614.70;2432.00;;;;;;5113167;28;20054;-65
2021/07/19 09:48:06;;;;;;;11.30;9.85;;;614.50;2432.00;;;;;;5114248;28;20023;-64
2021/07/19 09:50:47;;;;;;;12.15;9.77;;;614.50;2432.00;;;;;;5133770;27;20046;-65
2021/07/19 09:53:13;;;;;;;13.95;10.52;;;614.40;2432.00;;;;;;5136923;27;20495;-64
2021/07/19 09:55:39;;;;;;;12.68;10.88;;;614.40;2432.00;;;;;;5138209;27;20035;-65
2021/07/19 09:58:05;;;;;;;11.90;10.60;;;614.40;2432.00;;;;;;5121384;27;20028;-64
2021/07/19 10:00:32;;;;;;;15.02;11.25;;;614.40;2432.00;;;;;;5116414;28;20020;-64
2021/07/19 10:02:58;;;;;;;11.95;10.55;;;589.70;2432.00;;;;;;5117036;28;20024;-64
2021/07/19 10:05:31;;;;;;;12.10;10.30;;;589.70;2432.00;;;;;;5117523;28;20115;-64
2021/07/19 10:07:59;;;;;;;13.18;10.40;;;614.40;2432.00;;;;;;5117089;28;20031;-64
2021/07/19 10:10:35;;;;;;;12.82;10.63;;;614.50;2432.00;;;;;;5117035;28;20471;-63
2021/07/19 10:13:06;;;;;;;13.90;10.35;;;614.50;2432.00;;;;;;5116887;28;20161;-63
2021/07/19 10:15:32;;;;;;;14.20;10.95;;;614.90;2432.00;;;;;;5112135;28;20072;-63
2021/07/19 10:18:01;;;;;;;12.90;10.82;;;615.30;2432.00;;;;;;5117305;28;20027;-63
2021/07/19 10:20:27;;;;;;;13.25;11.27;;;640.30;2432.00;;;;;;5115595;28;20085;-64
2021/07/19 10:22:53;;;;;;;11.88;10.25;;;640.60;2432.00;;;;;;5116633;28;20051;-63
2021/07/19 10:25:20;;;;;;;13.00;11.05;;;640.80;2432.00;;;;;;5116853;28;20069;-64
2021/07/19 10:27:46;;;;;;;13.95;11.13;;;665.60;2432.00;;;;;;5116937;28;20350;-64
2021/07/19 10:30:13;;;;;;;11.48;10.27;;;665.80;2432.00;;;;;;5116733;27;20469;-63
2021/07/19 10:32:39;;;;;;;15.95;11.60;;;665.90;2432.00;;;;;;5116275;28;20061;-65
2021/07/19 10:35:06;;;;;;;12.65;11.02;;;666.00;2432.00;;;;;;5116454;28;20107;-63
2021/07/19 10:37:44;;;;;;;13.18;11.77;;;666.10;2432.00;;;;;;5123357;27;20072;-64
2021/07/19 10:40:13;;;;;;;13.52;11.05;;;666.20;2432.00;;;;;;5136945;27;20027;-64
2021/07/19 10:42:43;;;;;;;11.35;10.15;;;666.20;2432.00;;;;;;5136741;27;20038;-63
2021/07/19 10:45:14;;;;;;;12.63;11.02;;;666.20;2432.00;;;;;;5135709;27;20027;-63
2021/07/19 10:47:54;;;;;;;11.45;10.02;;;666.20;2432.00;;;;;;5136912;27;20082;-63
2021/07/19 10:50:25;;;;;;;12.57;11.13;;;666.10;2432.00;;;;;;5136773;27;20035;-62
2021/07/19 10:52:52;;;;;;;12.60;10.98;;;666.30;2432.00;;;;;;5136833;27;20031;-62
2021/07/19 10:55:36;;;;;;;14.45;11.20;;;666.50;2432.00;;;;;;5137044;27;20400;-62
2021/07/19 10:58:28;;;;;;;13.40;11.63;;;691.20;2432.00;;;;;;5131264;27;20130;-63
2021/07/19 11:00:54;;;;;;;13.45;11.50;;;691.40;2432.00;;;;;;5113754;28;20027;-63
2021/07/19 11:03:20;;;;;;;12.60;11.30;;;691.50;2432.00;;;;;;5113581;28;20035;-62
2021/07/19 11:05:49;;;;;;;13.10;11.30;;;691.60;2432.00;;;;;;5114039;28;20027;-63
2021/07/19 11:08:23;;;;;;;12.30;10.90;;;691.70;2432.00;;;;;;5114670;28;20032;-62
2021/07/19 11:10:50;;;;;;;12.48;10.80;;;691.80;2432.00;;;;;;5113379;28;20032;-62
2021/07/19 11:13:32;;;;;;;12.77;10.25;;;691.80;2432.00;;;;;;5114265;28;20031;-62
2021/07/19 11:16:00;;;;;;;11.85;10.55;;;691.80;2432.00;;;;;;5113526;28;20141;-63
2021/07/19 11:18:32;;;;;;;12.00;10.80;;;691.80;2432.00;;;;;;5113828;28;20040;-63
2021/07/19 11:21:01;;;;;;;14.13;10.98;;;691.70;2432.00;;;;;;5113028;28;20059;-63
2021/07/19 11:23:36;;;;;;;11.23;10.05;;;691.80;2432.00;;;;;;5114328;28;20023;-64
2021/07/19 11:26:05;;;;;;;12.25;10.52;;;691.90;2432.00;;;;;;5113778;27;20082;-63
2021/07/19 11:28:40;;;;;;;12.50;10.70;;;692.00;2432.00;;;;;;5112697;28;20377;-64
2021/07/19 11:31:29;;;;;;;11.68;10.07;;;716.80;2432.00;;;;;;5113942;28;20107;-64
2021/07/19 11:34:04;;;;;;;14.40;10.95;;;717.00;2432.00;;;;;;5123841;27;20027;-62
2021/07/19 11:36:32;;;;;;;15.88;10.93;;;717.00;2432.00;;;;;;5134379;27;20084;-63
2021/07/19 11:39:00;;;;;;;12.15;10.70;;;717.10;2432.00;;;;;;5128693;27;20015;-63
2021/07/19 11:41:29;;;;;;;11.68;10.43;;;717.10;2432.00;;;;;;5133846;27;20031;-62
2021/07/19 11:43:58;;;;;;;11.73;9.90;;;717.40;2432.00;;;;;;5113585;27;20380;-62
2021/07/19 11:46:25;;;;;;;12.85;9.93;;;717.50;2432.00;;;;;;5112002;28;20039;-62
2021/07/19 11:48:54;;;;;;;12.00;10.13;;;717.70;2432.00;;;;;;5112617;27;20488;-62
2021/07/19 11:51:21;;;;;;;12.82;9.80;;;742.40;2432.00;;;;;;5116223;27;20376;-65
2021/07/19 11:53:46;;;;;;;12.05;9.65;;;742.50;2432.00;;;;;;5133535;27;20047;-63
2021/07/19 11:56:12;;;;;;;11.30;10.00;;;742.40;2432.00;;;;;;5134374;27;20400;-63
2021/07/19 11:58:49;;;;;;;11.82;9.88;;;717.70;2432.00;;;;;;5134014;27;20023;-63
2021/07/19 12:01:22;;;;;;;10.90;9.88;;;742.40;2432.00;;;;;;5127433;27;20455;-63
2021/07/19 12:03:52;;;;;;;13.88;10.15;;;717.70;2432.00;;;;;;5122385;27;20111;-65
2021/07/19 12:06:18;;;;;;;12.20;10.43;;;717.70;2432.00;;;;;;5122453;27;20095;-64
2021/07/19 12:08:51;;;;;;;14.10;10.00;;;717.70;2432.00;;;;;;5133042;27;20516;-64
2021/07/19 12:11:17;;;;;;;11.48;10.00;;;742.40;2432.00;;;;;;5128761;27;20452;-63
2021/07/19 12:13:43;;;;;;;11.27;10.07;;;742.70;2432.00;;;;;;5112360;28;20039;-64